createdAt,value
2017-04-10T00:00:41.219Z,26.68
2017-04-10T00:01:41.218Z,24.48
2017-04-10T00:02:41.180Z,25.60
2017-04-10T00:03:41.147Z,25.60
2017-04-10T00:04:41.087Z,25.82
2017-04-10T00:05:41.056Z,26.37
2017-04-10T00:06:41.030Z,24.40
2017-04-10T00:07:41.715Z,24.27
2017-04-10T00:08:41.652Z,24.85
2017-04-10T00:09:42.376Z,27.63
2017-04-10T00:10:43.072Z,28.40
2017-04-10T00:11:43.044Z,28.58
2017-04-10T00:12:43.088Z,26.07
2017-04-10T00:13:43.767Z,28.12
2017-04-10T00:14:43.771Z,23.15
2017-04-10T00:15:43.699Z,25.57
2017-04-10T00:16:43.683Z,30.47
2017-04-10T00:17:43.648Z,28.60
2017-04-10T00:18:44.393Z,27.10
2017-04-10T00:19:45.092Z,25.57
2017-04-10T00:20:45.053Z,28.53
2017-04-10T00:21:45.017Z,24.88
2017-04-10T00:22:45.730Z,26.67
2017-04-10T00:23:46.437Z,28.33
2017-04-10T00:24:46.377Z,27.95
2017-04-10T00:25:46.381Z,29.68
2017-04-10T00:26:47.040Z,26.30
2017-04-10T00:27:47.080Z,26.02
2017-04-10T00:28:47.099Z,27.15
2017-04-10T00:29:47.303Z,31.87
2017-04-10T00:30:47.115Z,28.53
2017-04-10T00:31:47.775Z,28.27
2017-04-10T00:32:47.688Z,28.43
2017-04-10T00:33:47.615Z,29.15
2017-04-10T00:34:47.565Z,32.15
2017-04-10T00:35:48.222Z,33.50
2017-04-10T00:36:48.140Z,29.62
2017-04-10T00:37:48.067Z,39.63
2017-04-10T00:38:48.013Z,32.20
2017-04-10T00:39:47.948Z,34.72
2017-04-10T00:40:47.869Z,36.40
2017-04-10T00:41:47.829Z,33.70
2017-04-10T00:42:47.830Z,30.47
2017-04-10T00:43:47.764Z,33.98
2017-04-10T00:44:47.724Z,30.28
2017-04-10T00:45:47.679Z,33.18
2017-04-10T00:46:47.599Z,35.92
2017-04-10T00:47:47.526Z,37.03
2017-04-10T00:48:47.448Z,33.70
2017-04-10T00:49:48.329Z,32.55
2017-04-10T00:50:48.231Z,31.73
2017-04-10T00:51:48.193Z,34.83
2017-04-10T00:52:48.870Z,34.07
2017-04-10T00:53:48.823Z,32.87
2017-04-10T00:54:48.820Z,29.73
2017-04-10T00:55:49.047Z,34.00
2017-04-10T00:56:49.595Z,30.80
2017-04-10T00:57:49.500Z,33.85
2017-04-10T00:58:50.249Z,31.23
2017-04-10T00:59:50.189Z,36.88
2017-04-10T01:00:50.992Z,34.77
2017-04-10T01:01:50.931Z,33.93
2017-04-10T01:02:50.930Z,37.00
2017-04-10T01:03:51.631Z,28.85
2017-04-10T01:04:51.648Z,35.92
2017-04-10T01:05:52.359Z,34.55
2017-04-10T01:06:53.060Z,32.97
2017-04-10T01:07:52.987Z,32.97
2017-04-10T01:08:53.668Z,38.58
2017-04-10T01:09:53.619Z,34.08
2017-04-10T01:10:54.281Z,31.72
2017-04-10T01:11:54.204Z,32.88
2017-04-10T01:12:54.246Z,35.22
2017-04-10T01:13:54.373Z,33.33
2017-04-10T01:14:54.372Z,33.53
2017-04-10T01:15:55.364Z,36.62
2017-04-10T01:16:55.307Z,32.37
2017-04-10T01:17:55.960Z,32.05
2017-04-10T01:18:55.899Z,37.53
2017-04-10T01:19:55.835Z,35.77
2017-04-10T01:20:56.549Z,30.27
2017-04-10T01:21:56.881Z,36.68
2017-04-10T01:22:56.992Z,31.27
2017-04-10T01:23:56.872Z,32.02
2017-04-10T01:24:56.903Z,39.85
2017-04-10T01:25:57.579Z,33.65
2017-04-10T01:26:57.520Z,36.40
2017-04-10T01:27:57.783Z,31.73
2017-04-10T01:28:57.629Z,32.17
2017-04-10T01:29:57.599Z,32.17
2017-04-10T01:30:57.611Z,33.02
2017-04-10T01:31:57.627Z,31.82
2017-04-10T01:32:57.647Z,31.67
2017-04-10T01:33:57.612Z,33.20
2017-04-10T01:34:57.724Z,35.45
2017-04-10T01:35:57.657Z,29.53
2017-04-10T01:36:57.610Z,32.32
2017-04-10T01:37:57.570Z,33.43
2017-04-10T01:38:57.521Z,32.58
2017-04-10T01:39:57.521Z,29.90
2017-04-10T01:40:58.204Z,34.08
2017-04-10T01:41:58.180Z,32.48
2017-04-10T01:42:58.235Z,38.68
2017-04-10T01:43:58.188Z,30.20
2017-04-10T01:44:58.168Z,27.77
2017-04-10T01:45:58.860Z,31.70
2017-04-10T01:46:58.809Z,28.90
2017-04-10T01:47:58.788Z,31.87
2017-04-10T01:48:59.497Z,31.03
2017-04-10T01:49:59.433Z,30.67
2017-04-10T01:51:00.107Z,33.03
2017-04-10T01:52:00.055Z,29.78
2017-04-10T01:53:00.785Z,29.92
2017-04-10T01:54:01.500Z,31.57
2017-04-10T01:55:02.218Z,31.40
2017-04-10T01:56:03.064Z,33.33
2017-04-10T01:57:03.068Z,28.87
2017-04-10T01:58:03.778Z,31.80
2017-04-10T01:59:04.489Z,33.12
2017-04-10T02:00:04.477Z,31.07
2017-04-10T02:01:04.422Z,31.67
2017-04-10T02:02:05.096Z,32.88
2017-04-10T02:03:05.149Z,29.32
2017-04-10T02:04:05.795Z,31.27
2017-04-10T02:05:05.760Z,30.18
2017-04-10T02:06:06.506Z,25.60
2017-04-10T02:07:07.703Z,29.93
2017-04-10T02:08:07.699Z,26.28
2017-04-10T02:09:07.743Z,28.80
2017-04-10T02:10:08.460Z,24.70
2017-04-10T02:11:09.156Z,31.23
2017-04-10T02:12:09.105Z,27.65
2017-04-10T02:13:09.792Z,26.35
2017-04-10T02:14:09.706Z,28.73
2017-04-10T02:15:10.457Z,26.67
2017-04-10T02:16:11.135Z,29.78
2017-04-10T02:17:11.054Z,24.23
2017-04-10T02:18:10.989Z,26.47
2017-04-10T02:19:10.900Z,29.12
2017-04-10T02:20:10.988Z,28.90
2017-04-10T02:21:11.711Z,29.08
2017-04-10T02:22:12.369Z,28.22
2017-04-10T02:23:12.304Z,27.28
2017-04-10T02:24:12.266Z,25.13
2017-04-10T02:25:12.232Z,27.73
2017-04-10T02:26:12.607Z,25.52
2017-04-10T02:27:12.541Z,27.75
2017-04-10T02:28:12.480Z,25.95
2017-04-10T02:29:13.158Z,29.55
2017-04-10T02:30:13.101Z,28.55
2017-04-10T02:31:13.793Z,25.93
2017-04-10T02:32:13.736Z,25.68
2017-04-10T02:33:14.408Z,29.48
2017-04-10T02:34:14.337Z,28.03
2017-04-10T02:35:14.281Z,26.58
2017-04-10T02:36:14.202Z,26.32
2017-04-10T02:37:14.112Z,28.42
2017-04-10T02:38:14.012Z,24.38
2017-04-10T02:39:13.983Z,25.60
2017-04-10T02:40:14.671Z,26.73
2017-04-10T02:41:14.582Z,25.25
2017-04-10T02:42:14.479Z,25.27
2017-04-10T02:43:14.402Z,21.25
2017-04-10T02:44:14.368Z,28.43
2017-04-10T02:45:14.360Z,25.57
2017-04-10T02:46:14.279Z,24.87
2017-04-10T02:47:14.218Z,24.92
2017-04-10T02:48:14.263Z,26.73
2017-04-10T02:49:14.906Z,22.17
2017-04-10T02:50:14.864Z,25.93
2017-04-10T02:51:15.094Z,29.93
2017-04-10T02:52:14.884Z,26.13
2017-04-10T02:53:15.545Z,24.05
2017-04-10T02:54:15.468Z,24.97
2017-04-10T02:55:15.416Z,28.32
2017-04-10T02:56:16.129Z,23.25
2017-04-10T02:57:16.057Z,22.55
2017-04-10T02:58:16.811Z,22.18
2017-04-10T02:59:16.719Z,24.08
2017-04-10T03:00:16.656Z,24.50
2017-04-10T03:01:16.620Z,26.23
2017-04-10T03:02:16.539Z,22.73
2017-04-10T03:03:16.463Z,21.77
2017-04-10T03:04:16.364Z,25.25
2017-04-10T03:05:16.330Z,20.70
2017-04-10T03:06:16.263Z,21.72
2017-04-10T03:07:16.188Z,20.58
2017-04-10T03:08:16.189Z,24.93
2017-04-10T03:09:16.097Z,26.02
2017-04-10T03:10:16.056Z,19.90
2017-04-10T03:11:16.008Z,21.08
2017-04-10T03:12:15.984Z,24.35
2017-04-10T03:13:15.891Z,20.80
2017-04-10T03:14:15.823Z,21.60
2017-04-10T03:15:15.749Z,21.20
2017-04-10T03:16:16.476Z,19.42
2017-04-10T03:17:17.170Z,20.57
2017-04-10T03:18:17.125Z,19.32
2017-04-10T03:19:17.776Z,21.67
2017-04-10T03:20:17.712Z,20.70
2017-04-10T03:21:17.672Z,18.52
2017-04-10T03:22:18.322Z,20.63
2017-04-10T03:23:18.237Z,23.10
2017-04-10T03:24:18.168Z,21.25
2017-04-10T03:25:18.872Z,19.33
2017-04-10T03:26:18.788Z,20.82
2017-04-10T03:27:19.475Z,20.77
2017-04-10T03:28:19.404Z,18.98
2017-04-10T03:29:19.329Z,18.42
2017-04-10T03:30:20.004Z,24.27
2017-04-10T03:31:19.945Z,25.33
2017-04-10T03:32:20.194Z,20.15
2017-04-10T03:33:20.744Z,23.18
2017-04-10T03:34:20.896Z,21.37
2017-04-10T03:35:21.143Z,20.90
2017-04-10T03:36:20.984Z,22.22
2017-04-10T03:37:20.966Z,20.05
2017-04-10T03:38:20.967Z,19.20
2017-04-10T03:39:20.928Z,27.68
2017-04-10T03:40:21.646Z,22.97
2017-04-10T03:41:21.882Z,21.88
2017-04-10T03:42:21.986Z,24.25
2017-04-10T03:43:21.804Z,20.05
2017-04-10T03:44:21.747Z,17.75
2017-04-10T03:45:21.739Z,21.80
2017-04-10T03:46:21.671Z,22.87
2017-04-10T03:47:21.688Z,20.55
2017-04-10T03:48:21.646Z,21.27
2017-04-10T03:49:21.611Z,23.80
2017-04-10T03:50:22.353Z,17.20
2017-04-10T03:51:23.052Z,21.78
2017-04-10T03:52:23.752Z,21.77
2017-04-10T03:53:23.749Z,22.43
2017-04-10T03:54:23.691Z,21.52
2017-04-10T03:55:24.416Z,21.72
2017-04-10T03:56:25.105Z,22.63
2017-04-10T03:57:25.112Z,22.58
2017-04-10T03:58:25.170Z,22.40
2017-04-10T03:59:25.857Z,20.63
2017-04-10T04:00:25.827Z,22.47
2017-04-10T04:01:25.828Z,21.68
2017-04-10T04:02:25.771Z,18.95
2017-04-10T04:03:25.703Z,22.77
2017-04-10T04:04:26.371Z,25.20
2017-04-10T04:05:26.357Z,21.72
2017-04-10T04:06:26.326Z,23.20
2017-04-10T04:07:27.003Z,23.72
2017-04-10T04:08:26.935Z,21.70
2017-04-10T04:09:26.883Z,22.50
2017-04-10T04:10:26.902Z,24.32
2017-04-10T04:11:26.824Z,21.45
2017-04-10T04:12:26.772Z,22.85
2017-04-10T04:13:26.995Z,24.77
2017-04-10T04:14:26.833Z,22.52
2017-04-10T04:15:26.797Z,23.60
2017-04-10T04:16:27.532Z,22.55
2017-04-10T04:17:28.245Z,19.10
2017-04-10T04:18:28.922Z,23.93
2017-04-10T04:19:28.916Z,22.80
2017-04-10T04:20:28.837Z,25.53
2017-04-10T04:21:28.795Z,22.75
2017-04-10T04:22:29.507Z,23.25
2017-04-10T04:23:30.291Z,27.73
2017-04-10T04:24:30.361Z,22.10
2017-04-10T04:25:31.007Z,21.05
2017-04-10T04:26:30.987Z,24.17
2017-04-10T04:27:30.951Z,22.78
2017-04-10T04:28:30.914Z,22.75
2017-04-10T04:29:30.860Z,26.92
2017-04-10T04:30:30.796Z,27.37
2017-04-10T04:31:31.559Z,23.37
2017-04-10T04:32:31.528Z,26.48
2017-04-10T04:33:32.214Z,23.87
2017-04-10T04:34:32.146Z,23.83
2017-04-10T04:35:32.919Z,24.78
2017-04-10T04:36:32.907Z,26.42
2017-04-10T04:37:32.846Z,25.22
2017-04-10T04:38:32.867Z,22.07
2017-04-10T04:39:32.849Z,27.58
2017-04-10T04:40:32.803Z,23.68
2017-04-10T04:41:33.570Z,23.47
2017-04-10T04:42:33.520Z,22.30
2017-04-10T04:43:33.446Z,24.23
2017-04-10T04:44:34.159Z,25.45
2017-04-10T04:45:34.350Z,29.22
2017-04-10T04:46:34.219Z,25.20
2017-04-10T04:47:40.875Z,28.77
2017-04-10T04:48:40.820Z,24.58
2017-04-10T04:49:40.756Z,29.05
2017-04-10T04:50:41.448Z,27.00
2017-04-10T04:51:41.398Z,30.17
2017-04-10T04:52:41.328Z,27.83
2017-04-10T04:53:41.231Z,31.18
2017-04-10T04:54:41.176Z,26.20
2017-04-10T04:55:41.116Z,28.40
2017-04-10T04:56:41.091Z,29.25
2017-04-10T04:57:41.016Z,29.22
2017-04-10T04:58:41.756Z,30.15
2017-04-10T04:59:42.424Z,29.60
2017-04-10T05:00:42.404Z,27.88
2017-04-10T05:01:42.424Z,27.77
2017-04-10T05:02:42.401Z,31.07
2017-04-10T05:03:42.376Z,27.73
2017-04-10T05:04:43.084Z,33.37
2017-04-10T05:05:43.033Z,31.60
2017-04-10T05:06:43.033Z,36.50
2017-04-10T05:07:43.014Z,28.95
2017-04-10T05:08:42.951Z,32.15
2017-04-10T05:09:42.896Z,32.33
2017-04-10T05:10:49.001Z,34.72
2017-04-10T05:11:49.717Z,30.73
2017-04-10T05:12:50.451Z,30.50
2017-04-10T05:13:51.132Z,31.38
2017-04-10T05:14:51.091Z,32.32
2017-04-10T05:15:51.027Z,30.68
2017-04-10T05:16:51.040Z,33.38
2017-04-10T05:17:50.979Z,32.08
2017-04-10T05:18:51.716Z,36.10
2017-04-10T05:19:52.419Z,29.23
2017-04-10T05:20:53.135Z,36.77
2017-04-10T05:21:53.883Z,36.77
2017-04-10T05:22:53.811Z,30.95
2017-04-10T05:23:53.755Z,30.82
2017-04-10T05:24:53.720Z,34.27
2017-04-10T05:25:53.686Z,31.27
2017-04-10T05:26:54.414Z,34.82
2017-04-10T05:27:55.143Z,31.93
2017-04-10T05:28:55.865Z,39.30
2017-04-10T05:29:56.585Z,33.87
2017-04-10T05:30:57.300Z,36.40
2017-04-10T05:31:58.036Z,33.67
2017-04-10T05:32:59.712Z,36.73
2017-04-10T05:33:59.676Z,32.63
2017-04-10T05:35:00.373Z,32.90
2017-04-10T05:36:00.372Z,34.22
2017-04-10T05:37:00.363Z,35.27
2017-04-10T05:38:00.339Z,38.40
2017-04-10T05:39:00.304Z,37.13
2017-04-10T05:40:00.239Z,38.12
2017-04-10T05:41:00.960Z,40.45
2017-04-10T05:42:01.662Z,40.15
2017-04-10T05:43:01.592Z,38.35
2017-04-10T05:44:02.316Z,40.70
2017-04-10T05:45:03.079Z,35.68
2017-04-10T05:46:03.021Z,41.27
2017-04-10T05:47:02.966Z,42.13
2017-04-10T05:48:02.928Z,44.77
2017-04-10T05:49:02.932Z,40.38
2017-04-10T05:50:02.903Z,38.07
2017-04-10T05:51:03.357Z,44.27
2017-04-10T05:52:04.147Z,44.70
2017-04-10T05:53:04.120Z,40.82
2017-04-10T05:54:04.835Z,42.03
2017-04-10T05:55:05.560Z,44.45
2017-04-10T05:56:06.257Z,42.93
2017-04-10T05:57:06.312Z,42.38
2017-04-10T05:58:06.274Z,42.58
2017-04-10T05:59:06.188Z,46.12
2017-04-10T06:00:06.887Z,42.42
2017-04-10T06:01:06.912Z,45.32
2017-04-10T06:02:06.871Z,45.60
2017-04-10T06:03:06.849Z,49.70
2017-04-10T06:04:07.548Z,46.52
2017-04-10T06:05:07.500Z,43.72
2017-04-10T06:06:07.454Z,43.38
2017-04-10T06:07:07.400Z,41.02
2017-04-10T06:08:07.399Z,43.35
2017-04-10T06:09:07.360Z,44.97
2017-04-10T06:10:07.313Z,43.62
2017-04-10T06:11:07.282Z,46.80
2017-04-10T06:12:07.209Z,48.42
2017-04-10T06:13:08.048Z,44.37
2017-04-10T06:14:08.872Z,46.12
2017-04-10T06:15:09.700Z,46.33
2017-04-10T06:16:10.386Z,43.73
2017-04-10T06:17:10.327Z,42.98
2017-04-10T06:18:10.332Z,41.20
2017-04-10T06:19:10.292Z,42.73
2017-04-10T06:20:10.248Z,48.58
2017-04-10T06:21:10.201Z,41.10
2017-04-10T06:22:10.429Z,41.78
2017-04-10T06:23:10.427Z,41.25
2017-04-10T06:24:10.379Z,46.47
2017-04-10T06:25:10.300Z,43.02
2017-04-10T06:26:10.354Z,44.08
2017-04-10T06:27:10.300Z,44.15
2017-04-10T06:28:10.413Z,41.92
2017-04-10T06:29:10.370Z,37.13
2017-04-10T06:30:10.320Z,40.17
2017-04-10T06:31:10.284Z,39.20
2017-04-10T06:32:10.252Z,39.28
2017-04-10T06:33:10.226Z,42.73
2017-04-10T06:34:10.971Z,36.98
2017-04-10T06:35:10.949Z,43.17
2017-04-10T06:36:11.652Z,43.85
2017-04-10T06:37:11.662Z,44.00
2017-04-10T06:38:11.931Z,44.73
2017-04-10T06:39:11.809Z,43.55
2017-04-10T06:40:12.800Z,39.95
2017-04-10T06:41:12.842Z,40.12
2017-04-10T06:42:12.824Z,40.83
2017-04-10T06:43:13.558Z,41.52
2017-04-10T06:44:14.250Z,36.82
2017-04-10T06:45:14.471Z,42.63
2017-04-10T06:46:14.431Z,41.87
2017-04-10T06:47:14.395Z,45.57
2017-04-10T06:48:15.103Z,36.75
2017-04-10T06:49:15.094Z,43.33
2017-04-10T06:50:15.033Z,37.98
2017-04-10T06:51:15.723Z,38.85
2017-04-10T06:52:15.679Z,44.13
2017-04-10T06:53:15.642Z,39.32
2017-04-10T06:54:15.671Z,36.80
2017-04-10T06:55:16.392Z,35.23
2017-04-10T06:56:17.100Z,40.73
2017-04-10T06:57:17.060Z,37.90
2017-04-10T06:58:17.155Z,46.28
2017-04-10T06:59:17.858Z,38.90
2017-04-10T07:00:18.564Z,41.55
2017-04-10T07:01:18.838Z,41.17
2017-04-10T07:02:18.634Z,42.15
2017-04-10T07:03:18.688Z,39.83
2017-04-10T07:04:19.433Z,38.85
2017-04-10T07:05:19.324Z,35.00
2017-04-10T07:06:20.067Z,37.82
2017-04-10T07:07:19.983Z,38.45
2017-04-10T07:08:19.939Z,42.65
2017-04-10T07:09:19.852Z,36.25
2017-04-10T07:10:20.068Z,35.40
2017-04-10T07:11:20.038Z,39.78
2017-04-10T07:12:20.028Z,38.68
2017-04-10T07:13:19.968Z,34.03
2017-04-10T07:14:19.976Z,31.00
2017-04-10T07:15:19.947Z,31.22
2017-04-10T07:16:19.879Z,38.33
2017-04-10T07:17:19.843Z,35.90
2017-04-10T07:18:19.781Z,39.75
2017-04-10T07:19:19.735Z,33.53
2017-04-10T07:20:20.439Z,40.37
2017-04-10T07:21:20.367Z,33.25
2017-04-10T07:22:21.047Z,40.52
2017-04-10T07:23:21.008Z,36.70
2017-04-10T07:24:21.724Z,37.15
2017-04-10T07:25:22.411Z,38.92
2017-04-10T07:26:22.361Z,40.00
2017-04-10T07:27:23.035Z,38.73
2017-04-10T07:28:22.978Z,41.22
2017-04-10T07:29:23.800Z,38.87
2017-04-10T07:30:24.496Z,35.83
2017-04-10T07:31:24.422Z,41.07
2017-04-10T07:32:25.096Z,34.95
2017-04-10T07:33:25.045Z,38.37
2017-04-10T07:34:25.744Z,41.98
2017-04-10T07:35:25.681Z,38.12
2017-04-10T07:36:26.421Z,37.78
2017-04-10T07:37:27.096Z,41.07
2017-04-10T07:38:27.020Z,39.57
2017-04-10T07:39:27.724Z,33.75
2017-04-10T07:40:27.639Z,40.88
2017-04-10T07:41:27.847Z,37.53
2017-04-10T07:42:27.676Z,38.83
2017-04-10T07:43:28.373Z,39.78
2017-04-10T07:44:28.331Z,39.70
2017-04-10T07:45:28.287Z,32.77
2017-04-10T07:46:28.253Z,37.57
2017-04-10T07:47:28.194Z,40.77
2017-04-10T07:48:28.151Z,36.42
2017-04-10T07:49:28.123Z,38.40
2017-04-10T07:50:28.814Z,34.40
2017-04-10T07:51:28.749Z,34.57
2017-04-10T07:52:29.090Z,34.97
2017-04-10T07:53:28.901Z,33.00
2017-04-10T07:54:28.893Z,37.05
2017-04-10T07:55:29.599Z,33.77
2017-04-10T07:56:30.299Z,36.65
2017-04-10T07:57:30.265Z,33.87
2017-04-10T07:58:30.231Z,36.38
2017-04-10T07:59:30.947Z,33.38
2017-04-10T08:00:30.930Z,33.62
2017-04-10T08:01:30.988Z,38.30
2017-04-10T08:02:31.824Z,35.75
2017-04-10T08:03:31.787Z,38.50
2017-04-10T08:04:33.131Z,34.87
2017-04-10T08:05:33.107Z,35.58
2017-04-10T08:06:33.056Z,33.62
2017-04-10T08:07:33.754Z,35.02
2017-04-10T08:08:33.772Z,38.20
2017-04-10T08:09:33.732Z,37.92
2017-04-10T08:10:33.697Z,37.37
2017-04-10T08:11:34.359Z,29.87
2017-04-10T08:12:34.286Z,34.18
2017-04-10T08:13:34.253Z,31.00
2017-04-10T08:14:34.212Z,43.57
2017-04-10T08:15:34.942Z,40.93
2017-04-10T08:16:35.170Z,33.35
2017-04-10T08:17:35.275Z,34.55
2017-04-10T08:18:35.136Z,32.97
2017-04-10T08:19:35.450Z,31.83
2017-04-10T08:20:35.462Z,28.53
2017-04-10T08:21:35.424Z,32.45
2017-04-10T08:22:35.396Z,32.97
2017-04-10T08:23:35.293Z,32.60
2017-04-10T08:24:35.361Z,33.17
2017-04-10T08:25:35.367Z,35.42
2017-04-10T08:26:35.324Z,32.53
2017-04-10T08:27:35.587Z,35.70
2017-04-10T08:28:36.120Z,32.82
2017-04-10T08:29:36.072Z,32.08
2017-04-10T08:30:37.052Z,28.35
2017-04-10T08:31:36.973Z,26.05
2017-04-10T08:32:37.000Z,32.40
2017-04-10T08:33:36.952Z,31.13
2017-04-10T08:34:36.916Z,38.13
2017-04-10T08:35:37.688Z,30.90
2017-04-10T08:36:37.613Z,31.13
2017-04-10T08:37:37.551Z,32.50
2017-04-10T08:38:38.220Z,33.18
2017-04-10T08:39:38.161Z,32.47
2017-04-10T08:40:38.090Z,31.17
2017-04-10T08:41:38.780Z,40.93
2017-04-10T08:42:38.916Z,33.93
2017-04-10T08:43:39.647Z,29.95
2017-04-10T08:44:40.371Z,34.00
2017-04-10T08:45:41.159Z,32.83
2017-04-10T08:46:41.123Z,26.90
2017-04-10T08:47:41.028Z,35.95
2017-04-10T08:48:40.961Z,32.82
2017-04-10T08:49:40.898Z,29.73
2017-04-10T08:50:40.840Z,34.45
2017-04-10T08:51:41.520Z,33.03
2017-04-10T08:52:41.759Z,30.00
2017-04-10T08:53:41.616Z,30.72
2017-04-10T08:54:41.566Z,30.73
2017-04-10T08:55:42.239Z,27.67
2017-04-10T08:56:42.196Z,29.42
2017-04-10T08:57:42.850Z,30.58
2017-04-10T08:58:42.804Z,31.50
2017-04-10T08:59:42.801Z,26.92
2017-04-10T09:00:42.823Z,26.78
2017-04-10T09:01:43.540Z,24.40
2017-04-10T09:02:44.442Z,30.72
2017-04-10T09:03:44.287Z,28.42
2017-04-10T09:04:45.034Z,33.82
2017-04-10T09:05:45.040Z,28.23
2017-04-10T09:06:45.029Z,32.13
2017-04-10T09:07:45.771Z,25.80
2017-04-10T09:08:45.792Z,31.07
2017-04-10T09:09:45.887Z,33.58
2017-04-10T09:10:45.872Z,29.15
2017-04-10T09:11:46.587Z,27.25
2017-04-10T09:12:47.348Z,24.35
2017-04-10T09:13:47.304Z,25.33
2017-04-10T09:14:47.287Z,23.37
2017-04-10T09:15:47.269Z,25.90
2017-04-10T09:16:47.263Z,24.27
2017-04-10T09:17:47.213Z,27.15
2017-04-10T09:18:47.195Z,22.37
2017-04-10T09:19:47.172Z,29.23
2017-04-10T09:20:47.924Z,30.68
2017-04-10T09:21:47.892Z,21.85
2017-04-10T09:22:48.601Z,26.37
2017-04-10T09:23:48.536Z,26.95
2017-04-10T09:24:48.519Z,25.17
2017-04-10T09:25:49.354Z,22.50
2017-04-10T09:26:49.342Z,23.95
2017-04-10T09:27:49.316Z,30.00
2017-04-10T09:28:49.264Z,23.32
2017-04-10T09:29:49.516Z,24.15
2017-04-10T09:30:48.577Z,28.22
2017-04-10T09:31:49.265Z,20.45
2017-04-10T09:32:49.234Z,24.35
2017-04-10T09:33:49.295Z,20.82
2017-04-10T09:34:50.027Z,23.55
2017-04-10T09:35:50.012Z,24.65
2017-04-10T09:36:50.804Z,16.48
2017-04-10T09:37:50.760Z,22.23
2017-04-10T09:38:51.541Z,21.22
2017-04-10T09:39:51.477Z,23.88
2017-04-10T09:40:51.738Z,19.70
2017-04-10T09:41:52.176Z,19.80
2017-04-10T09:42:52.185Z,21.85
2017-04-10T09:43:52.183Z,17.80
2017-04-10T09:44:52.195Z,19.93
2017-04-10T09:45:52.173Z,22.20
2017-04-10T09:46:52.147Z,22.10
2017-04-10T09:47:52.891Z,22.82
2017-04-10T09:48:52.980Z,23.53
2017-04-10T09:49:53.227Z,20.97
2017-04-10T09:50:53.231Z,28.13
2017-04-10T09:51:53.207Z,19.53
2017-04-10T09:52:53.463Z,22.95
2017-04-10T09:53:54.095Z,19.95
2017-04-10T09:54:54.108Z,26.27
2017-04-10T09:55:54.087Z,23.78
2017-04-10T09:56:54.053Z,24.65
2017-04-10T09:57:54.770Z,24.98
2017-04-10T09:58:55.560Z,23.65
2017-04-10T09:59:55.596Z,22.43
2017-04-10T10:00:56.048Z,20.15
2017-04-10T10:01:56.979Z,21.73
2017-04-10T10:02:57.884Z,26.63
2017-04-10T10:03:58.607Z,24.35
2017-04-10T10:04:59.284Z,25.20
2017-04-10T10:05:59.247Z,25.72
2017-04-10T10:06:59.955Z,26.43
2017-04-10T10:08:00.163Z,22.15
2017-04-10T10:09:00.009Z,23.43
2017-04-10T10:10:00.032Z,18.33
2017-04-10T10:11:28.638Z,17.95
2017-04-10T10:12:30.419Z,22.62
2017-04-10T10:13:31.214Z,18.32
2017-04-10T10:14:31.146Z,19.63
2017-04-10T10:15:31.842Z,19.72
2017-04-10T10:16:31.798Z,22.82
2017-04-10T10:17:31.802Z,17.72
2017-04-10T10:18:32.351Z,17.70
2017-04-10T10:19:32.287Z,18.93
2017-04-10T10:20:33.025Z,17.87
2017-04-10T10:21:33.727Z,14.08
2017-04-10T10:22:33.644Z,17.23
2017-04-10T10:23:34.427Z,12.92
2017-04-10T10:24:34.435Z,13.80
2017-04-10T10:25:34.434Z,13.35
2017-04-10T10:26:34.384Z,10.50
2017-04-10T10:27:34.632Z,14.93
2017-04-10T10:28:35.172Z,12.20
2017-04-10T10:29:35.131Z,14.80
2017-04-10T10:30:35.848Z,10.50
2017-04-10T10:31:36.788Z,13.55
2017-04-10T10:32:37.627Z,14.35
2017-04-10T10:33:37.644Z,12.97
2017-04-10T10:34:37.689Z,10.88
2017-04-10T10:35:37.729Z,18.02
2017-04-10T10:36:37.880Z,12.22
2017-04-10T10:37:37.859Z,14.70
2017-04-10T10:38:39.087Z,12.57
2017-04-10T10:39:39.787Z,11.43
2017-04-10T10:40:39.732Z,9.03
2017-04-10T10:41:39.688Z,11.58
2017-04-10T10:42:39.667Z,14.35
2017-04-10T10:43:39.649Z,16.15
2017-04-10T10:44:39.620Z,13.30
2017-04-10T10:45:39.612Z,15.97
2017-04-10T10:46:39.733Z,14.72
2017-04-10T10:47:39.651Z,12.62
2017-04-10T10:48:40.341Z,13.83
2017-04-10T10:49:40.264Z,13.75
2017-04-10T10:50:40.260Z,11.50
2017-04-10T10:51:40.269Z,10.45
2017-04-10T10:52:40.248Z,12.55
2017-04-10T10:53:40.136Z,10.55
2017-04-10T10:54:40.156Z,11.43
2017-04-10T10:55:40.152Z,13.03
2017-04-10T10:56:40.164Z,15.18
2017-04-10T10:57:40.103Z,12.68
2017-04-10T10:58:40.118Z,15.27
2017-04-10T10:59:40.040Z,13.23
2017-04-10T11:00:40.707Z,13.00
2017-04-10T11:01:41.392Z,12.60
2017-04-10T11:02:42.277Z,14.27
2017-04-10T11:03:42.264Z,11.25
2017-04-10T11:04:42.828Z,12.80
2017-04-10T11:05:42.988Z,12.75
2017-04-10T11:06:43.163Z,13.65
2017-04-10T11:07:43.883Z,16.98
2017-04-10T11:08:43.875Z,14.17
2017-04-10T11:09:43.816Z,13.62
2017-04-10T11:11:01.250Z,14.87
2017-04-10T11:12:02.112Z,16.38
2017-04-10T11:13:02.284Z,13.58
2017-04-10T11:14:02.309Z,16.63
2017-04-10T11:15:02.543Z,13.20
2017-04-10T11:16:02.798Z,15.77
2017-04-10T11:17:02.937Z,16.57
2017-04-10T11:18:03.098Z,18.38
2017-04-10T11:19:03.915Z,20.50
2017-04-10T11:20:04.817Z,22.13
2017-04-10T11:21:05.103Z,21.85
2017-04-10T11:22:05.366Z,21.25
2017-04-10T11:23:05.524Z,14.48
2017-04-10T11:24:05.530Z,17.82
2017-04-10T11:25:05.496Z,19.57
2017-04-10T11:26:06.255Z,20.43
2017-04-10T11:27:06.219Z,20.60
2017-04-10T11:28:06.345Z,19.08
2017-04-10T11:29:07.196Z,19.12
2017-04-10T11:30:07.221Z,16.18
2017-04-10T11:31:07.299Z,22.30
2017-04-10T11:32:08.034Z,20.02
2017-04-10T11:33:07.995Z,17.18
2017-04-10T11:34:08.888Z,18.77
2017-04-10T11:35:09.080Z,16.60
2017-04-10T11:36:10.011Z,15.60
2017-04-10T11:37:09.947Z,16.33
2017-04-10T11:38:09.976Z,18.62
2017-04-10T11:39:09.937Z,17.42
2017-04-10T11:40:10.047Z,19.73
2017-04-10T11:41:10.093Z,19.42
2017-04-10T11:42:10.162Z,19.45
2017-04-10T11:43:11.405Z,19.18
2017-04-10T11:44:12.015Z,17.70
2017-04-10T11:45:12.026Z,17.78
2017-04-10T11:46:12.109Z,12.35
2017-04-10T11:47:13.103Z,11.35
2017-04-10T11:48:13.643Z,12.12
2017-04-10T11:49:13.666Z,16.33
2017-04-10T11:50:13.624Z,10.65
2017-04-10T11:51:13.652Z,12.57
2017-04-10T11:52:13.904Z,11.63
2017-04-10T11:53:13.805Z,10.62
2017-04-10T11:54:13.873Z,10.25
2017-04-10T11:55:13.840Z,13.73
2017-04-10T11:56:13.836Z,9.98
2017-04-10T11:57:13.827Z,10.82
2017-04-10T11:58:13.857Z,13.37
2017-04-10T11:59:13.911Z,11.20
2017-04-10T12:00:13.950Z,11.77
2017-04-10T12:01:15.429Z,8.63
2017-04-10T12:02:15.415Z,9.95
2017-04-10T12:03:15.377Z,8.95
2017-04-10T12:04:15.718Z,9.78
2017-04-10T12:05:15.843Z,12.72
2017-04-10T12:06:15.792Z,9.47
2017-04-10T12:07:15.810Z,11.82
2017-04-10T12:08:15.842Z,12.62
2017-04-10T12:09:16.573Z,10.90
2017-04-10T12:10:16.537Z,12.48
2017-04-10T12:11:18.557Z,13.40
2017-04-10T12:12:19.535Z,14.23
2017-04-10T12:13:19.544Z,14.90
2017-04-10T12:14:20.305Z,11.70
2017-04-10T12:15:20.367Z,12.55
2017-04-10T12:16:21.107Z,11.85
2017-04-10T12:17:21.853Z,10.08
2017-04-10T12:18:21.803Z,8.63
2017-04-10T12:19:21.829Z,14.88
2017-04-10T12:20:22.544Z,11.15
2017-04-10T12:21:22.532Z,9.80
2017-04-10T12:22:22.447Z,10.82
2017-04-10T12:23:22.410Z,9.97
2017-04-10T12:24:22.376Z,9.93
2017-04-10T12:25:25.378Z,13.23
2017-04-10T12:26:26.055Z,11.45
2017-04-10T12:27:25.988Z,9.65
2017-04-10T12:28:26.643Z,10.40
2017-04-10T12:29:26.612Z,6.80
2017-04-10T12:30:27.357Z,7.03
2017-04-10T12:31:28.060Z,7.68
2017-04-10T12:32:28.748Z,9.13
2017-04-10T12:33:28.710Z,7.10
2017-04-10T12:34:28.663Z,6.90
2017-04-10T12:35:28.624Z,7.27
2017-04-10T12:36:28.659Z,5.57
2017-04-10T12:37:28.737Z,6.13
2017-04-10T12:38:29.513Z,7.50
2017-04-10T12:39:29.498Z,5.92
2017-04-10T12:40:29.427Z,7.57
2017-04-10T12:41:29.404Z,5.70
2017-04-10T12:42:29.350Z,8.30
2017-04-10T12:43:29.589Z,9.00
2017-04-10T12:44:30.397Z,7.65
2017-04-10T12:45:30.623Z,5.53
2017-04-10T12:46:30.754Z,10.80
2017-04-10T12:47:30.873Z,7.12
2017-04-10T12:48:30.960Z,9.18
2017-04-10T12:49:32.113Z,7.30
2017-04-10T12:50:32.069Z,12.45
2017-04-10T12:51:32.825Z,6.58
2017-04-10T12:52:32.745Z,7.60
2017-04-10T12:53:32.647Z,5.60
2017-04-10T12:54:33.288Z,8.93
2017-04-10T12:55:33.268Z,5.77
2017-04-10T12:56:33.239Z,5.83
2017-04-10T12:57:33.173Z,7.20